sensor_id;sensor_type;location;lat;lon;timestamp;pressure;altitude;pressure_sealevel;temperature;humidity
44872;BME280;30602;51.060;17.226;2022-11-15T00:01:27;101772.75;;;3.56;100.00
44872;BME280;30602;51.060;17.226;2022-11-15T00:05:15;101768.98;;;3.59;100.00
44872;BME280;30602;51.060;17.226;2022-11-15T00:08:44;101764.72;;;3.71;100.00
44872;BME280;30602;51.060;17.226;2022-11-15T00:12:14;101753.43;;;3.79;100.00
44872;BME280;30602;51.060;17.226;2022-11-15T00:16:42;101750.20;;;3.86;100.00
44872;BME280;30602;51.060;17.226;2022-11-15T00:20:19;101741.31;;;3.93;100.00
44872;BME280;30602;51.060;17.226;2022-11-15T00:23:45;101734.82;;;3.94;100.00
44872;BME280;30602;51.060;17.226;2022-11-15T00:26:59;101726.23;;;3.92;100.00
44872;BME280;30602;51.060;17.226;2022-11-15T00:30:30;101719.57;;;3.98;100.00
44872;BME280;30602;51.060;17.226;2022-11-15T00:34:08;101720.39;;;3.98;100.00
44872;BME280;30602;51.060;17.226;2022-11-15T00:37:53;101724.90;;;3.99;100.00
44872;BME280;30602;51.060;17.226;2022-11-15T00:41:33;101679.85;;;3.66;100.00
44872;BME280;30602;51.060;17.226;2022-11-15T00:45:10;101721.50;;;3.83;100.00
44872;BME280;30602;51.060;17.226;2022-11-15T00:49:30;101717.59;;;3.82;100.00
44872;BME280;30602;51.060;17.226;2022-11-15T00:53:07;101717.95;;;3.86;100.00
44872;BME280;30602;51.060;17.226;2022-11-15T00:57:07;101714.39;;;3.83;100.00
44872;BME280;30602;51.060;17.226;2022-11-15T01:00:40;101709.79;;;3.96;100.00
44872;BME280;30602;51.060;17.226;2022-11-15T01:03:59;101679.67;;;3.81;100.00
44872;BME280;30602;51.060;17.226;2022-11-15T01:07:22;101699.93;;;3.89;100.00
44872;BME280;30602;51.060;17.226;2022-11-15T01:11:09;101708.18;;;3.70;100.00
44872;BME280;30602;51.060;17.226;2022-11-15T01:14:50;101717.32;;;3.41;99.01
44872;BME280;30602;51.060;17.226;2022-11-15T01:18:50;101717.75;;;3.27;98.58
44872;BME280;30602;51.060;17.226;2022-11-15T01:22:37;101713.16;;;3.21;98.60
44872;BME280;30602;51.060;17.226;2022-11-15T01:26:41;101708.63;;;3.10;98.07
44872;BME280;30602;51.060;17.226;2022-11-15T01:29:55;101702.86;;;3.09;98.80
44872;BME280;30602;51.060;17.226;2022-11-15T01:34:01;101699.02;;;3.15;99.76
44872;BME280;30602;51.060;17.226;2022-11-15T01:38:10;101693.77;;;3.27;100.00
44872;BME280;30602;51.060;17.226;2022-11-15T01:42:47;101687.41;;;3.33;100.00
44872;BME280;30602;51.060;17.226;2022-11-15T01:46:46;101688.60;;;3.33;100.00
44872;BME280;30602;51.060;17.226;2022-11-15T01:50:17;101674.34;;;3.08;99.07
44872;BME280;30602;51.060;17.226;2022-11-15T01:58:36;101655.45;;;2.88;99.18
44872;BME280;30602;51.060;17.226;2022-11-15T02:01:54;101660.91;;;2.88;99.18
44872;BME280;30602;51.060;17.226;2022-11-15T02:05:23;101664.01;;;2.91;99.51
44872;BME280;30602;51.060;17.226;2022-11-15T02:08:41;101658.27;;;2.79;99.04
44872;BME280;30602;51.060;17.226;2022-11-15T02:12:36;101640.95;;;2.38;97.55
44872;BME280;30602;51.060;17.226;2022-11-15T02:16:32;101648.30;;;2.30;96.97
44872;BME280;30602;51.060;17.226;2022-11-15T02:27:02;101641.25;;;2.66;99.98
44872;BME280;30602;51.060;17.226;2022-11-15T02:39:10;101637.82;;;2.74;99.45
44872;BME280;30602;51.060;17.226;2022-11-15T02:42:31;101636.45;;;2.56;98.71
44872;BME280;30602;51.060;17.226;2022-11-15T02:46:57;101633.27;;;2.44;98.57
44872;BME280;30602;51.060;17.226;2022-11-15T02:50:29;101625.08;;;2.34;98.53
44872;BME280;30602;51.060;17.226;2022-11-15T02:54:10;101620.45;;;2.18;98.24
44872;BME280;30602;51.060;17.226;2022-11-15T03:06:42;101603.52;;;1.83;97.44
44872;BME280;30602;51.060;17.226;2022-11-15T03:10:42;101606.56;;;1.74;97.40
44872;BME280;30602;51.060;17.226;2022-11-15T03:14:49;101608.01;;;1.78;98.04
44872;BME280;30602;51.060;17.226;2022-11-15T03:18:54;101604.47;;;1.80;98.02
44872;BME280;30602;51.060;17.226;2022-11-15T03:22:17;101604.35;;;1.82;98.12
44872;BME280;30602;51.060;17.226;2022-11-15T03:25:34;101610.51;;;1.84;98.63
44872;BME280;30602;51.060;17.226;2022-11-15T03:28:56;101604.72;;;1.84;98.89
44872;BME280;30602;51.060;17.226;2022-11-15T03:32:56;101599.25;;;1.89;99.53
44872;BME280;30602;51.060;17.226;2022-11-15T03:36:52;101595.61;;;1.81;98.78
44872;BME280;30602;51.060;17.226;2022-11-15T03:40:47;101594.98;;;1.76;98.21
44872;BME280;30602;51.060;17.226;2022-11-15T03:48:47;101585.39;;;1.57;97.81
44872;BME280;30602;51.060;17.226;2022-11-15T03:52:22;101582.87;;;1.49;97.95
44872;BME280;30602;51.060;17.226;2022-11-15T03:55:40;101575.87;;;1.43;98.14
44872;BME280;30602;51.060;17.226;2022-11-15T03:59:23;101579.77;;;1.37;97.80
44872;BME280;30602;51.060;17.226;2022-11-15T04:02:29;101582.21;;;1.32;97.76
44872;BME280;30602;51.060;17.226;2022-11-15T04:06:35;101580.42;;;1.28;97.88
44872;BME280;30602;51.060;17.226;2022-11-15T04:09:55;101584.63;;;1.30;98.08
44872;BME280;30602;51.060;17.226;2022-11-15T04:13:55;101581.48;;;1.31;98.30
44872;BME280;30602;51.060;17.226;2022-11-15T04:17:13;101579.91;;;1.33;98.56
44872;BME280;30602;51.060;17.226;2022-11-15T04:20:49;101581.26;;;1.30;98.85
44872;BME280;30602;51.060;17.226;2022-11-15T04:25:05;101579.80;;;1.26;98.87
44872;BME280;30602;51.060;17.226;2022-11-15T04:28:28;101578.91;;;1.21;98.61
44872;BME280;30602;51.060;17.226;2022-11-15T04:32:07;101577.45;;;1.24;98.87
44872;BME280;30602;51.060;17.226;2022-11-15T04:35:42;101579.75;;;1.21;98.96
44872;BME280;30602;51.060;17.226;2022-11-15T04:39:01;101575.20;;;1.22;99.14
44872;BME280;30602;51.060;17.226;2022-11-15T04:43:45;101571.02;;;1.23;99.41
44872;BME280;30602;51.060;17.226;2022-11-15T04:47:56;101567.68;;;1.27;99.40
44872;BME280;30602;51.060;17.226;2022-11-15T04:51:36;101569.57;;;1.25;99.34
44872;BME280;30602;51.060;17.226;2022-11-15T04:54:52;101569.82;;;1.19;99.40
44872;BME280;30602;51.060;17.226;2022-11-15T04:58:50;101570.77;;;1.22;99.46
44872;BME280;30602;51.060;17.226;2022-11-15T05:01:58;101554.37;;;1.28;99.13
44872;BME280;30602;51.060;17.226;2022-11-15T05:05:10;101555.84;;;1.25;98.70
44872;BME280;30602;51.060;17.226;2022-11-15T05:09:21;101548.52;;;1.07;98.15
44872;BME280;30602;51.060;17.226;2022-11-15T05:13:05;101547.81;;;1.04;98.21
44872;BME280;30602;51.060;17.226;2022-11-15T05:16:48;101542.49;;;1.02;98.54
44872;BME280;30602;51.060;17.226;2022-11-15T05:19:57;101540.60;;;1.02;99.01
44872;BME280;30602;51.060;17.226;2022-11-15T05:23:35;101545.95;;;0.99;99.25
44872;BME280;30602;51.060;17.226;2022-11-15T05:27:06;101524.13;;;1.03;99.98
44872;BME280;30602;51.060;17.226;2022-11-15T05:31:15;101539.84;;;1.11;99.82
44872;BME280;30602;51.060;17.226;2022-11-15T05:34:48;101541.70;;;1.14;99.54
44872;BME280;30602;51.060;17.226;2022-11-15T05:38:05;101537.52;;;1.14;99.70
44872;BME280;30602;51.060;17.226;2022-11-15T05:46:16;101530.01;;;1.17;99.67
44872;BME280;30602;51.060;17.226;2022-11-15T05:49:35;101533.50;;;1.13;99.61
44872;BME280;30602;51.060;17.226;2022-11-15T05:52:59;101539.93;;;1.05;99.30
44872;BME280;30602;51.060;17.226;2022-11-15T05:56:29;101535.98;;;0.97;99.30
44872;BME280;30602;51.060;17.226;2022-11-15T06:00:52;101528.56;;;0.99;99.03
44872;BME280;30602;51.060;17.226;2022-11-15T06:04:14;101536.33;;;0.94;98.29
44872;BME280;30602;51.060;17.226;2022-11-15T06:08:15;101537.63;;;0.87;98.22
44872;BME280;30602;51.060;17.226;2022-11-15T06:11:28;101534.28;;;0.86;98.19
44872;BME280;30602;51.060;17.226;2022-11-15T06:14:40;101532.59;;;0.89;98.52
44872;BME280;30602;51.060;17.226;2022-11-15T06:18:44;101540.60;;;0.84;98.35
44872;BME280;30602;51.060;17.226;2022-11-15T06:22:30;101543.18;;;0.83;98.65
44872;BME280;30602;51.060;17.226;2022-11-15T06:26:01;101536.50;;;0.72;98.62
44872;BME280;30602;51.060;17.226;2022-11-15T06:30:04;101547.91;;;0.81;99.00
44872;BME280;30602;51.060;17.226;2022-11-15T06:33:19;101546.95;;;0.83;98.65
44872;BME280;30602;51.060;17.226;2022-11-15T06:36:48;101547.61;;;0.80;98.70
44872;BME280;30602;51.060;17.226;2022-11-15T06:39:59;101540.97;;;0.79;98.65
44872;BME280;30602;51.060;17.226;2022-11-15T06:44:03;101544.57;;;0.81;98.82
44872;BME280;30602;51.060;17.226;2022-11-15T06:47:20;101545.95;;;0.84;98.68
44872;BME280;30602;51.060;17.226;2022-11-15T06:51:37;101551.45;;;0.80;98.70
44872;BME280;30602;51.060;17.226;2022-11-15T06:55:31;101551.00;;;0.83;98.94
44872;BME280;30602;51.060;17.226;2022-11-15T06:59:32;101545.09;;;0.98;99.60
44872;BME280;30602;51.060;17.226;2022-11-15T07:02:48;101549.48;;;1.11;99.99
44872;BME280;30602;51.060;17.226;2022-11-15T07:05:59;101538.33;;;1.20;100.00
44872;BME280;30602;51.060;17.226;2022-11-15T07:09:59;101530.93;;;1.18;100.00
44872;BME280;30602;51.060;17.226;2022-11-15T07:14:08;101546.55;;;1.27;100.00
44872;BME280;30602;51.060;17.226;2022-11-15T07:17:56;101550.62;;;1.38;100.00
44872;BME280;30602;51.060;17.226;2022-11-15T07:21:31;101549.19;;;1.47;100.00
44872;BME280;30602;51.060;17.226;2022-11-15T07:25:04;101549.87;;;1.50;100.00
44872;BME280;30602;51.060;17.226;2022-11-15T07:28:14;101555.60;;;1.65;100.00
44872;BME280;30602;51.060;17.226;2022-11-15T07:31:21;101558.34;;;1.79;100.00
44872;BME280;30602;51.060;17.226;2022-11-15T07:34:58;101561.84;;;2.00;100.00
44872;BME280;30602;51.060;17.226;2022-11-15T07:38:40;101544.77;;;2.04;100.00
44872;BME280;30602;51.060;17.226;2022-11-15T07:41:59;101560.83;;;2.38;100.00
44872;BME280;30602;51.060;17.226;2022-11-15T07:45:51;101554.04;;;2.40;100.00
44872;BME280;30602;51.060;17.226;2022-11-15T07:50:02;101547.01;;;2.51;100.00
44872;BME280;30602;51.060;17.226;2022-11-15T07:57:22;101542.81;;;2.74;100.00
44872;BME280;30602;51.060;17.226;2022-11-15T08:01:03;101544.64;;;2.79;100.00
44872;BME280;30602;51.060;17.226;2022-11-15T08:04:36;101530.40;;;2.85;100.00
44872;BME280;30602;51.060;17.226;2022-11-15T08:08:12;101541.88;;;3.02;100.00
44872;BME280;30602;51.060;17.226;2022-11-15T08:11:46;101540.59;;;3.18;100.00
44872;BME280;30602;51.060;17.226;2022-11-15T08:15:50;101539.37;;;3.31;100.00
44872;BME280;30602;51.060;17.226;2022-11-15T08:19:02;101530.16;;;3.41;100.00
44872;BME280;30602;51.060;17.226;2022-11-15T08:23:04;101524.92;;;3.50;100.00
44872;BME280;30602;51.060;17.226;2022-11-15T08:26:13;101525.54;;;3.58;100.00
44872;BME280;30602;51.060;17.226;2022-11-15T08:29:56;101516.88;;;3.76;100.00
44872;BME280;30602;51.060;17.226;2022-11-15T08:33:33;101509.69;;;3.86;100.00
44872;BME280;30602;51.060;17.226;2022-11-15T08:36:52;101512.95;;;3.98;100.00
44872;BME280;30602;51.060;17.226;2022-11-15T08:40:50;101509.23;;;4.12;100.00
44872;BME280;30602;51.060;17.226;2022-11-15T08:45:05;101500.19;;;4.31;100.00
44872;BME280;30602;51.060;17.226;2022-11-15T08:48:43;101497.82;;;4.43;100.00
44872;BME280;30602;51.060;17.226;2022-11-15T08:52:17;101490.47;;;4.59;100.00
44872;BME280;30602;51.060;17.226;2022-11-15T08:55:54;101477.03;;;4.66;100.00
44872;BME280;30602;51.060;17.226;2022-11-15T08:59:36;101482.09;;;4.82;100.00
44872;BME280;30602;51.060;17.226;2022-11-15T09:04:11;101482.64;;;5.00;100.00
44872;BME280;30602;51.060;17.226;2022-11-15T09:07:45;101475.12;;;5.16;100.00
44872;BME280;30602;51.060;17.226;2022-11-15T09:11:21;101464.41;;;5.22;100.00
44872;BME280;30602;51.060;17.226;2022-11-15T09:14:35;101478.42;;;5.44;100.00
44872;BME280;30602;51.060;17.226;2022-11-15T09:18:12;101484.84;;;5.64;100.00
44872;BME280;30602;51.060;17.226;2022-11-15T09:21:36;101486.45;;;5.78;100.00
44872;BME280;30602;51.060;17.226;2022-11-15T09:25:41;101484.69;;;6.00;100.00
44872;BME280;30602;51.060;17.226;2022-11-15T09:29:16;101485.45;;;6.08;100.00
44872;BME280;30602;51.060;17.226;2022-11-15T09:33:08;101478.80;;;6.27;100.00
44872;BME280;30602;51.060;17.226;2022-11-15T09:36:39;101475.38;;;6.44;100.00
44872;BME280;30602;51.060;17.226;2022-11-15T09:40:12;101462.96;;;6.51;100.00
44872;BME280;30602;51.060;17.226;2022-11-15T09:43:38;101465.36;;;6.75;100.00
44872;BME280;30602;51.060;17.226;2022-11-15T09:51:50;101460.33;;;6.89;100.00
44872;BME280;30602;51.060;17.226;2022-11-15T09:56:01;101447.05;;;7.08;100.00
44872;BME280;30602;51.060;17.226;2022-11-15T09:59:35;101442.73;;;7.21;100.00
44872;BME280;30602;51.060;17.226;2022-11-15T10:03:18;101435.18;;;7.35;100.00
44872;BME280;30602;51.060;17.226;2022-11-15T10:07:43;101430.56;;;7.44;100.00
44872;BME280;30602;51.060;17.226;2022-11-15T10:10:52;101423.61;;;7.51;100.00
44872;BME280;30602;51.060;17.226;2022-11-15T10:15:09;101421.39;;;7.61;100.00
44872;BME280;30602;51.060;17.226;2022-11-15T10:21:55;101411.09;;;7.79;99.98
44872;BME280;30602;51.060;17.226;2022-11-15T10:25:38;101410.09;;;7.92;99.34
44872;BME280;30602;51.060;17.226;2022-11-15T10:28:49;101408.93;;;8.11;98.44
44872;BME280;30602;51.060;17.226;2022-11-15T10:32:18;101402.85;;;8.28;98.34
44872;BME280;30602;51.060;17.226;2022-11-15T10:35:35;101400.44;;;8.36;98.18
44872;BME280;30602;51.060;17.226;2022-11-15T10:39:43;101393.33;;;8.55;97.31
44872;BME280;30602;51.060;17.226;2022-11-15T10:43:24;101383.47;;;8.69;96.71
44872;BME280;30602;51.060;17.226;2022-11-15T10:50:40;101372.59;;;8.77;94.66
44872;BME280;30602;51.060;17.226;2022-11-15T10:55:05;101367.34;;;8.80;93.83
44872;BME280;30602;51.060;17.226;2022-11-15T10:58:54;101330.74;;;8.71;91.81
44872;BME280;30602;51.060;17.226;2022-11-15T11:03:02;101356.38;;;9.11;91.98
44872;BME280;30602;51.060;17.226;2022-11-15T11:06:18;101362.03;;;9.16;90.54
44872;BME280;30602;51.060;17.226;2022-11-15T11:09:40;101355.71;;;9.26;90.72
44872;BME280;30602;51.060;17.226;2022-11-15T11:21:00;101338.88;;;9.40;88.11
44872;BME280;30602;51.060;17.226;2022-11-15T11:24:27;101341.56;;;9.63;87.82
44872;BME280;30602;51.060;17.226;2022-11-15T11:28:12;101335.20;;;9.64;87.27
44872;BME280;30602;51.060;17.226;2022-11-15T11:31:58;101335.75;;;9.82;85.26
44872;BME280;30602;51.060;17.226;2022-11-15T11:36:03;101329.16;;;9.88;84.74
44872;BME280;30602;51.060;17.226;2022-11-15T11:43:49;101319.22;;;10.09;84.37
44872;BME280;30602;51.060;17.226;2022-11-15T11:48:34;101314.57;;;10.09;83.27
44872;BME280;30602;51.060;17.226;2022-11-15T12:00:35;101294.39;;;10.09;82.28
44872;BME280;30602;51.060;17.226;2022-11-15T12:07:33;101282.84;;;10.41;81.42
44872;BME280;30602;51.060;17.226;2022-11-15T12:17:31;101268.01;;;10.60;80.51
44872;BME280;30602;51.060;17.226;2022-11-15T12:32:39;101247.34;;;10.97;79.08
44872;BME280;30602;51.060;17.226;2022-11-15T12:36:57;101244.99;;;10.97;79.44
44872;BME280;30602;51.060;17.226;2022-11-15T12:40:32;101234.00;;;10.97;79.67
44872;BME280;30602;51.060;17.226;2022-11-15T12:52:04;101227.59;;;11.19;81.54
44872;BME280;30602;51.060;17.226;2022-11-15T13:03:36;101218.05;;;11.37;80.44
44872;BME280;30602;51.060;17.226;2022-11-15T13:10:45;101198.54;;;11.33;80.79
44872;BME280;30602;51.060;17.226;2022-11-15T13:13:58;101199.39;;;11.37;81.33
44872;BME280;30602;51.060;17.226;2022-11-15T13:17:39;101191.56;;;11.42;81.58
44872;BME280;30602;51.060;17.226;2022-11-15T13:21:47;101192.95;;;11.47;81.82
44872;BME280;30602;51.060;17.226;2022-11-15T13:29:17;101182.91;;;11.49;81.70
44872;BME280;30602;51.060;17.226;2022-11-15T13:33:48;101179.14;;;11.55;82.00
44872;BME280;30602;51.060;17.226;2022-11-15T13:37:27;101177.27;;;11.58;81.78
44872;BME280;30602;51.060;17.226;2022-11-15T13:40:43;101177.68;;;11.64;82.62
44872;BME280;30602;51.060;17.226;2022-11-15T13:44:31;101177.35;;;11.57;83.04
44872;BME280;30602;51.060;17.226;2022-11-15T13:48:02;101176.59;;;11.60;82.75
44872;BME280;30602;51.060;17.226;2022-11-15T13:51:47;101168.63;;;11.53;82.75
44872;BME280;30602;51.060;17.226;2022-11-15T13:55:19;101173.66;;;11.53;83.21
44872;BME280;30602;51.060;17.226;2022-11-15T13:58:52;101170.12;;;11.39;83.73
44872;BME280;30602;51.060;17.226;2022-11-15T14:03:11;101170.36;;;11.32;83.75
44872;BME280;30602;51.060;17.226;2022-11-15T14:07:05;101176.21;;;11.26;83.01
44872;BME280;30602;51.060;17.226;2022-11-15T14:13:39;101175.66;;;11.08;84.32
44872;BME280;30602;51.060;17.226;2022-11-15T14:24:30;101153.55;;;10.69;86.40
44872;BME280;30602;51.060;17.226;2022-11-15T14:28:33;101152.10;;;10.66;86.77
44872;BME280;30602;51.060;17.226;2022-11-15T14:33:01;101154.10;;;10.57;86.77
44872;BME280;30602;51.060;17.226;2022-11-15T14:36:52;101156.12;;;10.49;87.02
44872;BME280;30602;51.060;17.226;2022-11-15T14:40:28;101155.91;;;10.17;88.91
44872;BME280;30602;51.060;17.226;2022-11-15T14:44:23;101156.87;;;9.96;90.01
44872;BME280;30602;51.060;17.226;2022-11-15T14:48:03;101156.08;;;9.71;88.69
44872;BME280;30602;51.060;17.226;2022-11-15T14:51:31;101146.36;;;9.37;89.65
44872;BME280;30602;51.060;17.226;2022-11-15T14:55:20;101143.05;;;9.32;90.50
44872;BME280;30602;51.060;17.226;2022-11-15T14:59:28;101141.11;;;9.26;91.20
44872;BME280;30602;51.060;17.226;2022-11-15T15:02:46;101142.47;;;9.09;90.64
44872;BME280;30602;51.060;17.226;2022-11-15T15:06:25;101141.87;;;8.89;91.52
44872;BME280;30602;51.060;17.226;2022-11-15T15:09:58;101138.98;;;8.67;92.25
44872;BME280;30602;51.060;17.226;2022-11-15T15:13:21;101137.91;;;8.54;93.09
44872;BME280;30602;51.060;17.226;2022-11-15T15:17:29;101136.41;;;8.33;93.74
44872;BME280;30602;51.060;17.226;2022-11-15T15:20:56;101131.50;;;8.23;93.68
44872;BME280;30602;51.060;17.226;2022-11-15T15:24:57;101109.93;;;8.03;93.87
44872;BME280;30602;51.060;17.226;2022-11-15T15:28:13;101121.51;;;7.83;93.10
44872;BME280;30602;51.060;17.226;2022-11-15T15:31:51;101105.13;;;7.66;94.38
44872;BME280;30602;51.060;17.226;2022-11-15T15:35:15;101110.77;;;7.60;95.04
44872;BME280;30602;51.060;17.226;2022-11-15T15:39:38;101114.41;;;7.38;94.84
44872;BME280;30602;51.060;17.226;2022-11-15T15:42:54;101116.52;;;7.34;95.63
44872;BME280;30602;51.060;17.226;2022-11-15T15:46:26;101111.24;;;7.29;96.41
44872;BME280;30602;51.060;17.226;2022-11-15T15:50:03;101110.22;;;7.25;96.75
44872;BME280;30602;51.060;17.226;2022-11-15T15:54:06;101116.00;;;7.15;97.30
44872;BME280;30602;51.060;17.226;2022-11-15T15:57:53;101112.99;;;7.14;97.51
44872;BME280;30602;51.060;17.226;2022-11-15T16:02:00;101118.18;;;7.12;97.24
44872;BME280;30602;51.060;17.226;2022-11-15T16:05:33;101117.12;;;7.20;97.50
44872;BME280;30602;51.060;17.226;2022-11-15T16:09:41;101115.88;;;7.03;96.71
44872;BME280;30602;51.060;17.226;2022-11-15T16:13:37;101118.41;;;6.83;95.81
44872;BME280;30602;51.060;17.226;2022-11-15T16:16:53;101119.92;;;6.63;95.54
44872;BME280;30602;51.060;17.226;2022-11-15T16:20:40;101118.59;;;6.40;95.09
44872;BME280;30602;51.060;17.226;2022-11-15T16:24:22;101113.19;;;6.19;94.78
44872;BME280;30602;51.060;17.226;2022-11-15T16:27:44;101102.85;;;6.00;94.74
44872;BME280;30602;51.060;17.226;2022-11-15T16:32:06;101106.97;;;5.70;92.46
44872;BME280;30602;51.060;17.226;2022-11-15T16:35:40;101111.98;;;5.41;91.13
44872;BME280;30602;51.060;17.226;2022-11-15T16:38:53;101085.92;;;5.26;92.52
44872;BME280;30602;51.060;17.226;2022-11-15T16:43:00;101111.21;;;5.43;93.46
44872;BME280;30602;51.060;17.226;2022-11-15T16:46:41;101114.80;;;5.43;93.98
44872;BME280;30602;51.060;17.226;2022-11-15T16:50:55;101116.83;;;5.47;95.08
44872;BME280;30602;51.060;17.226;2022-11-15T16:54:43;101112.84;;;5.60;95.54
44872;BME280;30602;51.060;17.226;2022-11-15T16:58:03;101113.89;;;5.55;95.26
44872;BME280;30602;51.060;17.226;2022-11-15T17:01:25;101105.84;;;5.36;96.02
44872;BME280;30602;51.060;17.226;2022-11-15T17:04:57;101102.02;;;5.36;95.92
44872;BME280;30602;51.060;17.226;2022-11-15T17:08:11;101096.03;;;5.25;95.51
44872;BME280;30602;51.060;17.226;2022-11-15T17:11:22;101096.49;;;5.11;95.75
44872;BME280;30602;51.060;17.226;2022-11-15T17:14:46;101097.29;;;4.97;95.78
44872;BME280;30602;51.060;17.226;2022-11-15T17:18:14;101091.44;;;4.91;95.18
44872;BME280;30602;51.060;17.226;2022-11-15T17:21:32;101086.27;;;4.79;94.77
44872;BME280;30602;51.060;17.226;2022-11-15T17:24:43;101092.19;;;4.72;94.42
44872;BME280;30602;51.060;17.226;2022-11-15T17:27:56;101093.17;;;4.56;94.56
44872;BME280;30602;51.060;17.226;2022-11-15T17:32:09;101095.73;;;4.52;95.76
44872;BME280;30602;51.060;17.226;2022-11-15T17:35:20;101098.47;;;4.49;96.43
44872;BME280;30602;51.060;17.226;2022-11-15T17:39:04;101095.77;;;4.51;97.86
44872;BME280;30602;51.060;17.226;2022-11-15T17:42:35;101091.51;;;4.40;97.80
44872;BME280;30602;51.060;17.226;2022-11-15T17:45:48;101091.73;;;4.42;97.70
44872;BME280;30602;51.060;17.226;2022-11-15T17:49:28;101093.89;;;4.12;94.89
44872;BME280;30602;51.060;17.226;2022-11-15T17:53:45;101091.20;;;3.98;95.15
44872;BME280;30602;51.060;17.226;2022-11-15T17:57:04;101078.85;;;3.95;95.18
44872;BME280;30602;51.060;17.226;2022-11-15T18:00:18;101087.36;;;3.95;95.69
44872;BME280;30602;51.060;17.226;2022-11-15T18:04:22;101080.05;;;3.83;95.05
44872;BME280;30602;51.060;17.226;2022-11-15T18:12:12;101083.25;;;3.69;94.37
44872;BME280;30602;51.060;17.226;2022-11-15T18:15:30;101076.38;;;3.58;94.33
44872;BME280;30602;51.060;17.226;2022-11-15T18:19:04;101070.77;;;3.52;94.42
44872;BME280;30602;51.060;17.226;2022-11-15T18:23:16;101071.10;;;3.43;93.98
44872;BME280;30602;51.060;17.226;2022-11-15T18:26:57;101064.07;;;3.33;93.50
44872;BME280;30602;51.060;17.226;2022-11-15T18:30:41;101040.15;;;3.29;94.60
44872;BME280;30602;51.060;17.226;2022-11-15T18:34:36;101062.55;;;3.46;95.27
44872;BME280;30602;51.060;17.226;2022-11-15T18:38:06;101063.81;;;3.42;95.11
44872;BME280;30602;51.060;17.226;2022-11-15T18:41:44;101059.91;;;3.48;95.48
44872;BME280;30602;51.060;17.226;2022-11-15T18:45:02;101055.35;;;3.19;94.04
44872;BME280;30602;51.060;17.226;2022-11-15T18:48:30;101061.27;;;3.38;96.57
44872;BME280;30602;51.060;17.226;2022-11-15T18:52:31;101060.37;;;3.58;98.91
44872;BME280;30602;51.060;17.226;2022-11-15T18:55:52;101060.98;;;3.62;99.76
44872;BME280;30602;51.060;17.226;2022-11-15T18:59:37;101057.19;;;3.71;100.00
44872;BME280;30602;51.060;17.226;2022-11-15T19:02:46;101049.77;;;3.77;100.00
44872;BME280;30602;51.060;17.226;2022-11-15T19:07:05;101053.11;;;3.66;99.57
44872;BME280;30602;51.060;17.226;2022-11-15T19:10:21;101044.66;;;3.35;98.67
44872;BME280;30602;51.060;17.226;2022-11-15T19:14:03;101053.00;;;3.45;99.39
44872;BME280;30602;51.060;17.226;2022-11-15T19:17:39;101049.77;;;3.50;99.86
44872;BME280;30602;51.060;17.226;2022-11-15T19:21:09;101054.59;;;3.56;100.00
44872;BME280;30602;51.060;17.226;2022-11-15T19:24:50;101031.38;;;3.54;100.00
44872;BME280;30602;51.060;17.226;2022-11-15T19:28:03;101054.98;;;3.83;100.00
44872;BME280;30602;51.060;17.226;2022-11-15T19:31:53;101044.69;;;4.00;100.00
44872;BME280;30602;51.060;17.226;2022-11-15T19:36:15;101038.30;;;4.14;100.00
44872;BME280;30602;51.060;17.226;2022-11-15T19:39:28;101018.12;;;4.21;100.00
44872;BME280;30602;51.060;17.226;2022-11-15T19:43:37;101028.07;;;4.30;100.00
44872;BME280;30602;51.060;17.226;2022-11-15T19:47:15;101037.84;;;4.32;100.00
44872;BME280;30602;51.060;17.226;2022-11-15T19:50:27;101031.05;;;4.32;100.00
44872;BME280;30602;51.060;17.226;2022-11-15T19:54:16;101023.97;;;4.39;100.00
44872;BME280;30602;51.060;17.226;2022-11-15T19:57:45;101003.96;;;4.48;100.00
44872;BME280;30602;51.060;17.226;2022-11-15T20:01:28;101000.51;;;4.53;100.00
44872;BME280;30602;51.060;17.226;2022-11-15T20:08:47;100998.39;;;4.62;100.00
44872;BME280;30602;51.060;17.226;2022-11-15T20:12:03;100986.78;;;4.63;100.00
44872;BME280;30602;51.060;17.226;2022-11-15T20:15:22;100983.84;;;4.66;100.00
44872;BME280;30602;51.060;17.226;2022-11-15T20:22:28;100977.68;;;4.76;100.00
44872;BME280;30602;51.060;17.226;2022-11-15T20:25:45;100980.92;;;4.83;100.00
44872;BME280;30602;51.060;17.226;2022-11-15T20:29:04;100973.39;;;4.83;100.00
44872;BME280;30602;51.060;17.226;2022-11-15T20:33:43;100970.66;;;4.92;100.00
44872;BME280;30602;51.060;17.226;2022-11-15T20:37:15;100968.07;;;4.99;100.00
44872;BME280;30602;51.060;17.226;2022-11-15T20:40:34;100973.05;;;5.01;100.00
44872;BME280;30602;51.060;17.226;2022-11-15T20:44:38;100973.77;;;5.02;100.00
44872;BME280;30602;51.060;17.226;2022-11-15T20:48:46;100971.27;;;5.02;100.00
44872;BME280;30602;51.060;17.226;2022-11-15T20:51:59;100963.30;;;4.94;100.00
44872;BME280;30602;51.060;17.226;2022-11-15T20:55:11;100974.38;;;5.07;100.00
44872;BME280;30602;51.060;17.226;2022-11-15T20:58:59;100975.30;;;5.01;100.00
44872;BME280;30602;51.060;17.226;2022-11-15T21:02:50;100971.28;;;5.06;100.00
44872;BME280;30602;51.060;17.226;2022-11-15T21:06:24;100968.09;;;5.13;100.00
44872;BME280;30602;51.060;17.226;2022-11-15T21:10:32;100949.93;;;5.10;100.00
44872;BME280;30602;51.060;17.226;2022-11-15T21:14:55;100962.66;;;5.24;100.00
44872;BME280;30602;51.060;17.226;2022-11-15T21:18:09;100968.34;;;5.24;100.00
44872;BME280;30602;51.060;17.226;2022-11-15T21:23:00;100975.27;;;5.24;100.00
44872;BME280;30602;51.060;17.226;2022-11-15T21:26:27;100966.38;;;5.25;100.00